Terminal Aerodrome Forecast
Issued by NWS

Home | Current Version | Previous Version | Text Only | Print | Product List | Glossary On
Versions: 1 2 3 4 5 6 7 8 9 10 11 12 13 14 15 16 17
000
FTUS44 KCRP 302330
TAFALI
TAF
KALI 302330Z 3100/3124 VRB05KT P6SM SCT250
     FM310900 VRB03KT 4SM BR FEW008
      TEMPO 3111/3113 2SM BR
     FM311400 VRB06KT P6SM SCT020 SCT030
     FM312100 12008KT P6SM VCSH SCT035 BKN100=

USA.gov is the U.S. government's official web portal to all federal, state and local government web resources and services.